sensor_id;sensor_type;location;lat;lon;timestamp;pressure;altitude;pressure_sealevel;temperature;humidity
44457;BME280;30159;49.316;8.558;2023-08-08T00:01:17;100491.50;;;15.19;100.00
44457;BME280;30159;49.316;8.558;2023-08-08T00:03:44;100465.28;;;15.01;100.00
44457;BME280;30159;49.316;8.558;2023-08-08T00:06:10;100493.28;;;15.24;100.00
44457;BME280;30159;49.316;8.558;2023-08-08T00:08:38;100420.00;;;14.87;100.00
44457;BME280;30159;49.316;8.558;2023-08-08T00:11:05;100483.34;;;15.42;100.00
44457;BME280;30159;49.316;8.558;2023-08-08T00:13:32;100486.72;;;15.47;100.00
44457;BME280;30159;49.316;8.558;2023-08-08T00:15:58;100491.44;;;15.55;100.00
44457;BME280;30159;49.316;8.558;2023-08-08T00:18:25;100487.28;;;15.58;100.00
44457;BME280;30159;49.316;8.558;2023-08-08T00:20:51;100486.16;;;15.59;100.00
44457;BME280;30159;49.316;8.558;2023-08-08T00:23:18;100484.06;;;15.56;100.00
44457;BME280;30159;49.316;8.558;2023-08-08T00:25:46;100486.94;;;15.51;100.00
44457;BME280;30159;49.316;8.558;2023-08-08T00:28:15;100486.94;;;15.51;100.00
44457;BME280;30159;49.316;8.558;2023-08-08T00:30:41;100486.59;;;15.52;100.00
44457;BME280;30159;49.316;8.558;2023-08-08T00:33:08;100483.78;;;15.57;100.00
44457;BME280;30159;49.316;8.558;2023-08-08T00:35:34;100487.47;;;15.62;100.00
44457;BME280;30159;49.316;8.558;2023-08-08T00:38:01;100489.25;;;15.66;100.00
44457;BME280;30159;49.316;8.558;2023-08-08T00:40:27;100476.16;;;15.68;100.00
44457;BME280;30159;49.316;8.558;2023-08-08T00:42:55;100490.75;;;15.72;100.00
44457;BME280;30159;49.316;8.558;2023-08-08T00:45:22;100485.50;;;15.76;100.00
44457;BME280;30159;49.316;8.558;2023-08-08T00:47:49;100487.47;;;15.84;100.00
44457;BME280;30159;49.316;8.558;2023-08-08T00:50:15;100481.38;;;15.78;100.00
44457;BME280;30159;49.316;8.558;2023-08-08T00:52:44;100481.38;;;15.78;100.00
44457;BME280;30159;49.316;8.558;2023-08-08T00:55:11;100481.59;;;15.68;100.00
44457;BME280;30159;49.316;8.558;2023-08-08T00:57:40;100467.47;;;15.57;100.00
44457;BME280;30159;49.316;8.558;2023-08-08T01:00:08;100469.19;;;15.53;100.00
44457;BME280;30159;49.316;8.558;2023-08-08T01:02:35;100461.47;;;15.47;100.00
44457;BME280;30159;49.316;8.558;2023-08-08T01:05:03;100468.63;;;15.43;100.00
44457;BME280;30159;49.316;8.558;2023-08-08T01:07:37;100469.06;;;15.36;100.00
44457;BME280;30159;49.316;8.558;2023-08-08T01:10:09;100460.88;;;15.27;100.00
44457;BME280;30159;49.316;8.558;2023-08-08T01:12:39;100466.09;;;15.24;100.00
44457;BME280;30159;49.316;8.558;2023-08-08T01:15:09;100461.72;;;15.14;100.00
44457;BME280;30159;49.316;8.558;2023-08-08T01:17:36;100463.53;;;15.18;100.00
44457;BME280;30159;49.316;8.558;2023-08-08T01:20:05;100473.72;;;15.13;100.00
44457;BME280;30159;49.316;8.558;2023-08-08T01:22:37;100457.28;;;14.95;100.00
44457;BME280;30159;49.316;8.558;2023-08-08T01:25:08;100467.50;;;14.99;100.00
44457;BME280;30159;49.316;8.558;2023-08-08T01:27:35;100469.84;;;14.91;100.00
44457;BME280;30159;49.316;8.558;2023-08-08T01:30:01;100467.88;;;14.83;100.00
44457;BME280;30159;49.316;8.558;2023-08-08T01:32:29;100453.41;;;14.74;100.00
44457;BME280;30159;49.316;8.558;2023-08-08T01:34:55;100469.34;;;14.89;100.00
44457;BME280;30159;49.316;8.558;2023-08-08T01:37:26;100421.66;;;14.61;100.00
44457;BME280;30159;49.316;8.558;2023-08-08T01:39:56;100464.63;;;14.95;100.00
44457;BME280;30159;49.316;8.558;2023-08-08T01:42:27;100454.56;;;14.95;100.00
44457;BME280;30159;49.316;8.558;2023-08-08T01:44:55;100457.66;;;15.03;100.00
44457;BME280;30159;49.316;8.558;2023-08-08T01:47:22;100461.16;;;15.03;100.00
44457;BME280;30159;49.316;8.558;2023-08-08T01:49:48;100462.19;;;14.93;100.00
44457;BME280;30159;49.316;8.558;2023-08-08T01:52:15;100461.19;;;14.89;100.00
44457;BME280;30159;49.316;8.558;2023-08-08T01:54:41;100458.59;;;14.84;100.00
44457;BME280;30159;49.316;8.558;2023-08-08T01:57:08;100464.66;;;14.81;100.00
44457;BME280;30159;49.316;8.558;2023-08-08T01:59:36;100463.47;;;14.73;100.00
44457;BME280;30159;49.316;8.558;2023-08-08T02:02:03;100454.25;;;14.61;100.00
44457;BME280;30159;49.316;8.558;2023-08-08T02:04:29;100462.88;;;14.63;100.00
44457;BME280;30159;49.316;8.558;2023-08-08T02:06:56;100457.88;;;14.56;100.00
44457;BME280;30159;49.316;8.558;2023-08-08T02:09:22;100468.31;;;14.49;100.00
44457;BME280;30159;49.316;8.558;2023-08-08T02:11:49;100378.31;;;13.91;100.00
44457;BME280;30159;49.316;8.558;2023-08-08T02:14:15;100454.63;;;14.40;100.00
44457;BME280;30159;49.316;8.558;2023-08-08T02:16:43;100458.25;;;14.36;100.00
44457;BME280;30159;49.316;8.558;2023-08-08T02:19:10;100449.72;;;14.42;100.00
44457;BME280;30159;49.316;8.558;2023-08-08T02:21:36;100439.38;;;14.44;100.00
44457;BME280;30159;49.316;8.558;2023-08-08T02:24:03;100447.13;;;14.37;100.00
44457;BME280;30159;49.316;8.558;2023-08-08T02:26:30;100451.25;;;14.34;100.00
44457;BME280;30159;49.316;8.558;2023-08-08T02:28:56;100450.44;;;14.34;100.00
44457;BME280;30159;49.316;8.558;2023-08-08T02:31:23;100458.47;;;14.39;100.00
44457;BME280;30159;49.316;8.558;2023-08-08T02:33:51;100416.72;;;14.12;100.00
44457;BME280;30159;49.316;8.558;2023-08-08T02:36:18;100458.97;;;14.41;100.00
44457;BME280;30159;49.316;8.558;2023-08-08T02:38:45;100445.03;;;14.34;100.00
44457;BME280;30159;49.316;8.558;2023-08-08T02:41:11;100456.06;;;14.38;100.00
44457;BME280;30159;49.316;8.558;2023-08-08T02:43:38;100450.09;;;14.49;100.00
44457;BME280;30159;49.316;8.558;2023-08-08T02:46:04;100291.13;;;13.48;100.00
44457;BME280;30159;49.316;8.558;2023-08-08T02:48:31;100454.25;;;14.61;100.00
44457;BME280;30159;49.316;8.558;2023-08-08T02:50:58;100447.72;;;14.62;100.00
44457;BME280;30159;49.316;8.558;2023-08-08T02:53:25;100442.19;;;14.67;100.00
44457;BME280;30159;49.316;8.558;2023-08-08T02:55:51;100446.97;;;14.70;100.00
44457;BME280;30159;49.316;8.558;2023-08-08T02:58:18;100442.69;;;14.69;100.00
44457;BME280;30159;49.316;8.558;2023-08-08T03:00:45;100443.78;;;14.68;100.00
44457;BME280;30159;49.316;8.558;2023-08-08T03:03:11;100441.84;;;14.68;100.00
44457;BME280;30159;49.316;8.558;2023-08-08T03:05:38;100450.81;;;14.69;100.00
44457;BME280;30159;49.316;8.558;2023-08-08T03:08:06;100449.19;;;14.68;100.00
44457;BME280;30159;49.316;8.558;2023-08-08T03:10:32;100454.63;;;14.68;100.00
44457;BME280;30159;49.316;8.558;2023-08-08T03:12:59;100453.53;;;14.69;100.00
44457;BME280;30159;49.316;8.558;2023-08-08T03:15:25;100451.41;;;14.66;100.00
44457;BME280;30159;49.316;8.558;2023-08-08T03:17:52;100444.63;;;14.54;100.00
44457;BME280;30159;49.316;8.558;2023-08-08T03:20:18;100445.19;;;14.51;100.00
44457;BME280;30159;49.316;8.558;2023-08-08T03:22:45;100435.84;;;14.44;100.00
44457;BME280;30159;49.316;8.558;2023-08-08T03:25:13;100434.22;;;14.43;100.00
44457;BME280;30159;49.316;8.558;2023-08-08T03:27:39;100428.75;;;14.20;100.00
44457;BME280;30159;49.316;8.558;2023-08-08T03:30:06;100443.72;;;14.31;100.00
44457;BME280;30159;49.316;8.558;2023-08-08T03:32:33;100448.44;;;14.26;100.00
44457;BME280;30159;49.316;8.558;2023-08-08T03:34:59;100447.75;;;14.20;100.00
44457;BME280;30159;49.316;8.558;2023-08-08T03:37:26;100441.31;;;14.16;100.00
44457;BME280;30159;49.316;8.558;2023-08-08T03:39:52;100443.22;;;14.16;100.00
44457;BME280;30159;49.316;8.558;2023-08-08T03:42:20;100442.72;;;14.13;100.00
44457;BME280;30159;49.316;8.558;2023-08-08T03:44:47;100442.22;;;14.11;100.00
44457;BME280;30159;49.316;8.558;2023-08-08T03:47:13;100434.19;;;14.06;100.00
44457;BME280;30159;49.316;8.558;2023-08-08T03:49:40;100428.47;;;14.08;100.00
44457;BME280;30159;49.316;8.558;2023-08-08T03:52:07;100435.38;;;14.14;100.00
44457;BME280;30159;49.316;8.558;2023-08-08T03:54:33;100441.19;;;14.07;100.00
44457;BME280;30159;49.316;8.558;2023-08-08T03:57:00;100440.69;;;14.05;100.00
44457;BME280;30159;49.316;8.558;2023-08-08T03:59:27;100447.34;;;13.99;100.00
44457;BME280;30159;49.316;8.558;2023-08-08T04:01:54;100448.25;;;13.95;100.00
44457;BME280;30159;49.316;8.558;2023-08-08T04:04:20;100441.50;;;13.92;100.00
44457;BME280;30159;49.316;8.558;2023-08-08T04:06:47;100448.81;;;13.91;100.00
44457;BME280;30159;49.316;8.558;2023-08-08T04:09:14;100435.19;;;13.83;100.00
44457;BME280;30159;49.316;8.558;2023-08-08T04:11:40;100441.09;;;13.85;100.00
44457;BME280;30159;49.316;8.558;2023-08-08T04:14:07;100444.31;;;13.87;100.00
44457;BME280;30159;49.316;8.558;2023-08-08T04:16:34;100439.69;;;13.87;100.00
44457;BME280;30159;49.316;8.558;2023-08-08T04:19:01;100442.91;;;13.89;100.00
44457;BME280;30159;49.316;8.558;2023-08-08T04:21:28;100447.31;;;13.85;100.00
44457;BME280;30159;49.316;8.558;2023-08-08T04:23:57;100451.06;;;13.89;100.00
44457;BME280;30159;49.316;8.558;2023-08-08T04:26:24;100449.13;;;13.90;100.00
44457;BME280;30159;49.316;8.558;2023-08-08T04:28:50;100450.72;;;13.91;100.00
44457;BME280;30159;49.316;8.558;2023-08-08T04:31:17;100448.81;;;13.91;100.00
44457;BME280;30159;49.316;8.558;2023-08-08T04:33:45;100385.84;;;13.53;100.00
44457;BME280;30159;49.316;8.558;2023-08-08T04:36:11;100458.78;;;13.96;100.00
44457;BME280;30159;49.316;8.558;2023-08-08T04:38:41;100457.78;;;14.06;100.00
44457;BME280;30159;49.316;8.558;2023-08-08T04:41:07;100457.47;;;14.07;100.00
44457;BME280;30159;49.316;8.558;2023-08-08T04:43:34;100452.03;;;14.07;100.00
44457;BME280;30159;49.316;8.558;2023-08-08T04:46:11;100456.47;;;14.17;100.00
44457;BME280;30159;49.316;8.558;2023-08-08T04:48:38;100459.00;;;14.13;100.00
44457;BME280;30159;49.316;8.558;2023-08-08T04:51:12;100456.88;;;14.10;100.00
44457;BME280;30159;49.316;8.558;2023-08-08T04:53:41;100460.00;;;14.18;100.00
44457;BME280;30159;49.316;8.558;2023-08-08T04:56:07;100466.72;;;14.20;100.00
44457;BME280;30159;49.316;8.558;2023-08-08T04:58:35;100466.91;;;14.24;100.00
44457;BME280;30159;49.316;8.558;2023-08-08T05:01:02;100462.91;;;14.35;100.00
44457;BME280;30159;49.316;8.558;2023-08-08T05:03:30;100469.34;;;14.39;100.00
44457;BME280;30159;49.316;8.558;2023-08-08T05:05:57;100372.50;;;13.84;100.00
44457;BME280;30159;49.316;8.558;2023-08-08T05:08:26;100468.41;;;14.44;100.00
44457;BME280;30159;49.316;8.558;2023-08-08T05:10:55;100431.56;;;14.29;100.00
44457;BME280;30159;49.316;8.558;2023-08-08T05:13:23;100463.19;;;14.61;100.00
44457;BME280;30159;49.316;8.558;2023-08-08T05:15:49;100441.44;;;14.75;100.00
44457;BME280;30159;49.316;8.558;2023-08-08T05:18:17;100449.06;;;15.09;100.00
44457;BME280;30159;49.316;8.558;2023-08-08T05:20:56;100445.06;;;15.29;100.00
44457;BME280;30159;49.316;8.558;2023-08-08T05:23:25;100446.66;;;15.53;100.00
44457;BME280;30159;49.316;8.558;2023-08-08T05:25:55;100443.00;;;15.89;100.00
44457;BME280;30159;49.316;8.558;2023-08-08T05:28:21;100446.25;;;16.08;100.00
44457;BME280;30159;49.316;8.558;2023-08-08T05:30:55;100454.03;;;16.32;100.00
44457;BME280;30159;49.316;8.558;2023-08-08T05:33:26;100448.31;;;16.51;100.00
44457;BME280;30159;49.316;8.558;2023-08-08T05:35:53;100380.09;;;16.39;100.00
44457;BME280;30159;49.316;8.558;2023-08-08T05:38:21;100452.22;;;17.02;100.00
44457;BME280;30159;49.316;8.558;2023-08-08T05:40:47;100453.66;;;17.17;100.00
44457;BME280;30159;49.316;8.558;2023-08-08T05:43:16;100452.81;;;17.34;100.00
44457;BME280;30159;49.316;8.558;2023-08-08T05:45:44;100446.16;;;17.79;100.00
44457;BME280;30159;49.316;8.558;2023-08-08T05:48:10;100445.63;;;18.24;98.62
44457;BME280;30159;49.316;8.558;2023-08-08T05:50:38;100452.91;;;18.70;95.25
44457;BME280;30159;49.316;8.558;2023-08-08T05:53:04;100453.00;;;19.83;89.24
44457;BME280;30159;49.316;8.558;2023-08-08T05:55:31;100452.75;;;20.74;80.53
44457;BME280;30159;49.316;8.558;2023-08-08T05:57:57;100459.31;;;21.70;77.32
44457;BME280;30159;49.316;8.558;2023-08-08T06:00:25;100466.00;;;21.40;77.17
44457;BME280;30159;49.316;8.558;2023-08-08T06:02:52;100465.34;;;21.91;75.01
44457;BME280;30159;49.316;8.558;2023-08-08T06:05:21;100460.22;;;22.05;75.68
44457;BME280;30159;49.316;8.558;2023-08-08T06:07:48;100474.75;;;22.92;72.27
44457;BME280;30159;49.316;8.558;2023-08-08T06:10:15;100465.78;;;22.41;71.92
44457;BME280;30159;49.316;8.558;2023-08-08T06:12:41;100467.03;;;23.18;70.10
44457;BME280;30159;49.316;8.558;2023-08-08T06:15:08;100467.84;;;23.84;68.54
44457;BME280;30159;49.316;8.558;2023-08-08T06:17:37;100456.97;;;23.06;70.21
44457;BME280;30159;49.316;8.558;2023-08-08T06:20:04;100460.44;;;24.94;66.33
44457;BME280;30159;49.316;8.558;2023-08-08T06:22:32;100466.47;;;26.23;62.31
44457;BME280;30159;49.316;8.558;2023-08-08T06:24:58;100456.44;;;27.86;58.70
44457;BME280;30159;49.316;8.558;2023-08-08T06:27:25;100461.13;;;28.50;56.91
44457;BME280;30159;49.316;8.558;2023-08-08T06:29:51;100472.81;;;29.15;55.50
44457;BME280;30159;49.316;8.558;2023-08-08T06:32:18;100455.06;;;29.58;54.01
44457;BME280;30159;49.316;8.558;2023-08-08T06:34:46;100460.56;;;29.72;53.21
44457;BME280;30159;49.316;8.558;2023-08-08T06:37:12;100464.66;;;28.44;54.09
44457;BME280;30159;49.316;8.558;2023-08-08T06:39:39;100460.31;;;27.35;57.34
44457;BME280;30159;49.316;8.558;2023-08-08T06:42:07;100463.16;;;27.85;56.77
44457;BME280;30159;49.316;8.558;2023-08-08T06:44:42;100459.94;;;28.33;54.75
44457;BME280;30159;49.316;8.558;2023-08-08T06:47:09;100457.22;;;29.32;54.26
44457;BME280;30159;49.316;8.558;2023-08-08T06:49:36;100453.09;;;28.81;54.85
44457;BME280;30159;49.316;8.558;2023-08-08T06:52:04;100452.63;;;29.00;54.00
44457;BME280;30159;49.316;8.558;2023-08-08T06:54:31;100444.25;;;29.11;54.21
44457;BME280;30159;49.316;8.558;2023-08-08T06:56:57;100448.69;;;28.91;55.21
44457;BME280;30159;49.316;8.558;2023-08-08T06:59:24;100452.19;;;29.06;55.09
44457;BME280;30159;49.316;8.558;2023-08-08T07:01:51;100444.44;;;28.61;55.49
44457;BME280;30159;49.316;8.558;2023-08-08T07:04:18;100445.69;;;29.34;54.21
44457;BME280;30159;49.316;8.558;2023-08-08T07:06:44;100446.22;;;30.95;50.92
44457;BME280;30159;49.316;8.558;2023-08-08T07:09:12;100447.59;;;31.10;50.58
44457;BME280;30159;49.316;8.558;2023-08-08T07:11:40;100452.03;;;30.73;51.35
44457;BME280;30159;49.316;8.558;2023-08-08T07:14:06;100446.50;;;31.04;50.53
44457;BME280;30159;49.316;8.558;2023-08-08T07:16:33;100451.78;;;30.95;50.37
44457;BME280;30159;49.316;8.558;2023-08-08T07:19:00;100451.03;;;31.21;50.29
44457;BME280;30159;49.316;8.558;2023-08-08T07:21:26;100419.53;;;30.63;50.88
44457;BME280;30159;49.316;8.558;2023-08-08T07:23:54;100440.53;;;32.07;48.84
44457;BME280;30159;49.316;8.558;2023-08-08T07:26:24;100439.06;;;33.02;47.29
44457;BME280;30159;49.316;8.558;2023-08-08T07:28:50;100437.63;;;32.58;48.21
44457;BME280;30159;49.316;8.558;2023-08-08T07:31:17;100441.72;;;32.49;47.69
44457;BME280;30159;49.316;8.558;2023-08-08T07:33:43;100444.56;;;32.89;47.71
44457;BME280;30159;49.316;8.558;2023-08-08T07:36:10;100442.41;;;32.13;46.80
44457;BME280;30159;49.316;8.558;2023-08-08T07:38:36;100446.84;;;31.87;47.31
44457;BME280;30159;49.316;8.558;2023-08-08T07:41:03;100445.88;;;32.41;47.01
44457;BME280;30159;49.316;8.558;2023-08-08T07:43:31;100441.38;;;33.07;46.70
44457;BME280;30159;49.316;8.558;2023-08-08T07:45:59;100444.34;;;33.69;44.73
44457;BME280;30159;49.316;8.558;2023-08-08T07:48:25;100448.34;;;31.92;45.40
44457;BME280;30159;49.316;8.558;2023-08-08T07:50:52;100445.47;;;30.56;46.89
44457;BME280;30159;49.316;8.558;2023-08-08T07:53:18;100453.09;;;30.86;47.16
44457;BME280;30159;49.316;8.558;2023-08-08T07:55:44;100448.81;;;29.43;49.41
44457;BME280;30159;49.316;8.558;2023-08-08T07:58:11;100443.66;;;28.61;51.77
44457;BME280;30159;49.316;8.558;2023-08-08T08:00:39;100438.13;;;28.43;50.92
44457;BME280;30159;49.316;8.558;2023-08-08T08:03:06;100439.63;;;28.79;51.86
44457;BME280;30159;49.316;8.558;2023-08-08T08:05:33;100436.44;;;28.74;50.37
44457;BME280;30159;49.316;8.558;2023-08-08T08:08:00;100431.06;;;27.56;52.74
44457;BME280;30159;49.316;8.558;2023-08-08T08:10:27;100438.53;;;26.39;55.20
44457;BME280;30159;49.316;8.558;2023-08-08T08:12:54;100435.63;;;24.94;57.04
44457;BME280;30159;49.316;8.558;2023-08-08T08:15:23;100384.00;;;23.58;60.47
44457;BME280;30159;49.316;8.558;2023-08-08T08:17:51;100436.06;;;23.67;62.28
44457;BME280;30159;49.316;8.558;2023-08-08T08:20:17;100438.03;;;23.43;62.63
44457;BME280;30159;49.316;8.558;2023-08-08T08:22:44;100439.25;;;23.26;62.90
44457;BME280;30159;49.316;8.558;2023-08-08T08:25:12;100444.06;;;23.10;63.76
44457;BME280;30159;49.316;8.558;2023-08-08T08:27:40;100439.69;;;22.70;64.59
44457;BME280;30159;49.316;8.558;2023-08-08T08:30:08;100437.97;;;22.62;65.86
44457;BME280;30159;49.316;8.558;2023-08-08T08:32:36;100424.34;;;22.69;66.57
44457;BME280;30159;49.316;8.558;2023-08-08T08:35:05;100426.75;;;22.90;66.60
44457;BME280;30159;49.316;8.558;2023-08-08T08:37:33;100429.13;;;22.72;64.81
44457;BME280;30159;49.316;8.558;2023-08-08T08:40:00;100432.91;;;22.83;66.54
44457;BME280;30159;49.316;8.558;2023-08-08T08:42:29;100426.81;;;22.74;66.21
44457;BME280;30159;49.316;8.558;2023-08-08T08:44:58;100433.00;;;22.51;67.23
44457;BME280;30159;49.316;8.558;2023-08-08T08:47:27;100425.94;;;22.70;67.42
44457;BME280;30159;49.316;8.558;2023-08-08T08:49:56;100421.47;;;22.62;67.04
44457;BME280;30159;49.316;8.558;2023-08-08T08:52:25;100425.34;;;22.61;68.58
44457;BME280;30159;49.316;8.558;2023-08-08T08:54:51;100417.47;;;22.59;68.59
44457;BME280;30159;49.316;8.558;2023-08-08T08:57:19;100430.59;;;22.85;67.35
44457;BME280;30159;49.316;8.558;2023-08-08T08:59:47;100418.13;;;22.72;66.32
44457;BME280;30159;49.316;8.558;2023-08-08T09:02:14;100423.19;;;22.70;66.57
44457;BME280;30159;49.316;8.558;2023-08-08T09:04:43;100409.97;;;22.76;66.34
44457;BME280;30159;49.316;8.558;2023-08-08T09:07:10;100398.44;;;22.70;66.71
44457;BME280;30159;49.316;8.558;2023-08-08T09:09:42;100411.00;;;23.06;66.18
44457;BME280;30159;49.316;8.558;2023-08-08T09:12:08;100411.03;;;22.90;65.40
44457;BME280;30159;49.316;8.558;2023-08-08T09:14:39;100401.34;;;22.77;65.32
44457;BME280;30159;49.316;8.558;2023-08-08T09:17:10;100397.00;;;22.57;66.01
44457;BME280;30159;49.316;8.558;2023-08-08T09:19:37;100409.00;;;22.68;65.54
44457;BME280;30159;49.316;8.558;2023-08-08T09:22:04;100406.03;;;22.77;64.23
44457;BME280;30159;49.316;8.558;2023-08-08T09:24:30;100402.41;;;22.53;62.46
44457;BME280;30159;49.316;8.558;2023-08-08T09:26:59;100416.16;;;22.34;63.54
44457;BME280;30159;49.316;8.558;2023-08-08T09:29:26;100416.94;;;22.18;63.31
44457;BME280;30159;49.316;8.558;2023-08-08T09:31:52;100399.34;;;22.03;63.34
44457;BME280;30159;49.316;8.558;2023-08-08T09:34:24;100387.56;;;21.87;63.82
44457;BME280;30159;49.316;8.558;2023-08-08T09:36:51;100393.06;;;21.87;63.58
44457;BME280;30159;49.316;8.558;2023-08-08T09:39:18;100399.56;;;22.30;62.02
44457;BME280;30159;49.316;8.558;2023-08-08T09:41:45;100385.75;;;22.26;62.43
44457;BME280;30159;49.316;8.558;2023-08-08T09:44:13;100392.69;;;22.40;62.33
44457;BME280;30159;49.316;8.558;2023-08-08T09:46:40;100406.84;;;22.06;61.13
44457;BME280;30159;49.316;8.558;2023-08-08T09:49:07;100389.53;;;21.71;62.16
44457;BME280;30159;49.316;8.558;2023-08-08T09:51:34;100376.38;;;21.96;63.33
44457;BME280;30159;49.316;8.558;2023-08-08T09:54:03;100394.28;;;22.05;62.12
44457;BME280;30159;49.316;8.558;2023-08-08T09:56:30;100393.19;;;22.26;63.59
44457;BME280;30159;49.316;8.558;2023-08-08T09:58:58;100390.03;;;22.63;62.63
44457;BME280;30159;49.316;8.558;2023-08-08T10:01:27;100381.09;;;22.66;63.01
44457;BME280;30159;49.316;8.558;2023-08-08T10:03:54;100377.88;;;22.83;61.49
44457;BME280;30159;49.316;8.558;2023-08-08T10:06:22;100374.19;;;22.95;63.24
44457;BME280;30159;49.316;8.558;2023-08-08T10:08:49;100383.91;;;23.08;61.59
44457;BME280;30159;49.316;8.558;2023-08-08T10:11:16;100367.16;;;22.98;61.32
44457;BME280;30159;49.316;8.558;2023-08-08T10:13:48;100359.38;;;23.00;62.62
44457;BME280;30159;49.316;8.558;2023-08-08T10:16:16;100368.28;;;23.12;61.87
44457;BME280;30159;49.316;8.558;2023-08-08T10:18:45;100378.84;;;23.10;60.77
44457;BME280;30159;49.316;8.558;2023-08-08T10:21:12;100379.41;;;23.00;61.36
44457;BME280;30159;49.316;8.558;2023-08-08T10:23:41;100348.94;;;22.89;60.43
44457;BME280;30159;49.316;8.558;2023-08-08T10:26:17;100367.63;;;22.80;59.90
44457;BME280;30159;49.316;8.558;2023-08-08T10:28:53;100371.16;;;22.81;59.78
44457;BME280;30159;49.316;8.558;2023-08-08T10:31:20;100355.19;;;22.67;59.65
44457;BME280;30159;49.316;8.558;2023-08-08T10:33:48;100364.09;;;22.99;60.55
44457;BME280;30159;49.316;8.558;2023-08-08T10:36:15;100360.97;;;23.01;58.69
44457;BME280;30159;49.316;8.558;2023-08-08T10:38:44;100364.97;;;23.03;57.89
44457;BME280;30159;49.316;8.558;2023-08-08T10:41:12;100209.66;;;21.96;58.74
44457;BME280;30159;49.316;8.558;2023-08-08T10:43:48;100360.75;;;22.90;60.53
44457;BME280;30159;49.316;8.558;2023-08-08T10:46:22;100357.63;;;22.91;60.35
44457;BME280;30159;49.316;8.558;2023-08-08T10:48:52;100361.50;;;23.10;60.97
44457;BME280;30159;49.316;8.558;2023-08-08T10:51:19;100357.97;;;23.09;60.88
44457;BME280;30159;49.316;8.558;2023-08-08T10:53:46;100354.91;;;23.14;59.51
44457;BME280;30159;49.316;8.558;2023-08-08T10:56:13;100353.94;;;23.03;58.36
44457;BME280;30159;49.316;8.558;2023-08-08T10:58:41;100348.50;;;23.07;59.20
44457;BME280;30159;49.316;8.558;2023-08-08T11:01:08;100310.09;;;22.71;57.67
44457;BME280;30159;49.316;8.558;2023-08-08T11:03:36;100343.72;;;23.04;59.64
44457;BME280;30159;49.316;8.558;2023-08-08T11:06:06;100285.47;;;22.79;57.03
44457;BME280;30159;49.316;8.558;2023-08-08T11:08:33;100348.59;;;23.33;55.58
44457;BME280;30159;49.316;8.558;2023-08-08T11:11:01;100349.53;;;23.45;54.14
44457;BME280;30159;49.316;8.558;2023-08-08T11:13:28;100352.56;;;23.59;54.19
44457;BME280;30159;49.316;8.558;2023-08-08T11:15:55;100354.06;;;23.80;52.95
44457;BME280;30159;49.316;8.558;2023-08-08T11:18:21;100349.47;;;23.64;52.00
44457;BME280;30159;49.316;8.558;2023-08-08T11:20:49;100352.94;;;23.84;54.15
44457;BME280;30159;49.316;8.558;2023-08-08T11:23:17;100361.38;;;23.95;53.25
44457;BME280;30159;49.316;8.558;2023-08-08T11:25:46;100354.59;;;23.89;50.47
44457;BME280;30159;49.316;8.558;2023-08-08T11:28:13;100363.59;;;23.86;50.79
44457;BME280;30159;49.316;8.558;2023-08-08T11:30:42;100344.09;;;23.98;51.54
44457;BME280;30159;49.316;8.558;2023-08-08T11:33:09;100334.25;;;23.97;53.05
44457;BME280;30159;49.316;8.558;2023-08-08T11:35:37;100350.28;;;24.18;51.72
44457;BME280;30159;49.316;8.558;2023-08-08T11:38:04;100343.91;;;24.10;51.61
44457;BME280;30159;49.316;8.558;2023-08-08T11:40:33;100345.41;;;24.08;50.82
44457;BME280;30159;49.316;8.558;2023-08-08T11:42:59;100340.16;;;24.26;52.49
44457;BME280;30159;49.316;8.558;2023-08-08T11:45:26;100348.78;;;24.24;51.41
44457;BME280;30159;49.316;8.558;2023-08-08T11:47:54;100345.41;;;24.38;53.21
44457;BME280;30159;49.316;8.558;2023-08-08T11:50:22;100345.31;;;24.57;52.23
44457;BME280;30159;49.316;8.558;2023-08-08T11:52:51;100334.88;;;24.44;50.43
44457;BME280;30159;49.316;8.558;2023-08-08T11:55:19;100347.78;;;24.36;51.48
44457;BME280;30159;49.316;8.558;2023-08-08T11:57:49;100312.81;;;24.13;51.41
44457;BME280;30159;49.316;8.558;2023-08-08T12:00:16;100340.25;;;24.63;51.12
44457;BME280;30159;49.316;8.558;2023-08-08T12:02:43;100331.06;;;24.89;52.57
44457;BME280;30159;49.316;8.558;2023-08-08T12:05:11;100286.00;;;24.74;51.35
44457;BME280;30159;49.316;8.558;2023-08-08T12:07:39;100334.06;;;25.14;51.89
44457;BME280;30159;49.316;8.558;2023-08-08T12:10:14;100326.31;;;25.23;52.12
44457;BME280;30159;49.316;8.558;2023-08-08T12:12:40;100331.91;;;24.93;51.51
44457;BME280;30159;49.316;8.558;2023-08-08T12:15:10;100314.72;;;24.70;53.42
44457;BME280;30159;49.316;8.558;2023-08-08T12:17:37;100322.69;;;24.78;53.32
44457;BME280;30159;49.316;8.558;2023-08-08T12:20:05;100319.31;;;24.58;52.82
44457;BME280;30159;49.316;8.558;2023-08-08T12:22:32;100314.78;;;24.43;52.32
44457;BME280;30159;49.316;8.558;2023-08-08T12:24:59;100321.00;;;24.36;52.49
44457;BME280;30159;49.316;8.558;2023-08-08T12:27:26;100313.19;;;24.12;51.65
44457;BME280;30159;49.316;8.558;2023-08-08T12:29:52;100315.34;;;24.26;51.37
44457;BME280;30159;49.316;8.558;2023-08-08T12:32:21;100311.94;;;24.36;52.16
44457;BME280;30159;49.316;8.558;2023-08-08T12:34:48;100315.50;;;24.40;51.84
44457;BME280;30159;49.316;8.558;2023-08-08T12:37:15;100315.50;;;24.40;51.46
44457;BME280;30159;49.316;8.558;2023-08-08T12:39:41;100301.00;;;24.43;50.10
44457;BME280;30159;49.316;8.558;2023-08-08T12:42:08;100307.84;;;24.56;50.79
44457;BME280;30159;49.316;8.558;2023-08-08T12:44:35;100306.84;;;24.72;51.01
44457;BME280;30159;49.316;8.558;2023-08-08T12:47:01;100321.06;;;24.74;50.43